sensor_id;sensor_type;location;lat;lon;timestamp;temperature;humidity
19348;DHT22;9810;52.480;9.806;2022-12-16T00:00:36;-7.70;99.90
19348;DHT22;9810;52.480;9.806;2022-12-16T00:03:05;-7.80;99.90
19348;DHT22;9810;52.480;9.806;2022-12-16T00:05:32;-7.90;99.90
19348;DHT22;9810;52.480;9.806;2022-12-16T00:08:02;-7.80;99.90
19348;DHT22;9810;52.480;9.806;2022-12-16T00:10:29;-8.00;99.90
19348;DHT22;9810;52.480;9.806;2022-12-16T00:13:16;-7.90;99.90
19348;DHT22;9810;52.480;9.806;2022-12-16T00:15:43;-8.20;99.90
19348;DHT22;9810;52.480;9.806;2022-12-16T00:18:13;-8.30;99.90
19348;DHT22;9810;52.480;9.806;2022-12-16T00:20:43;-8.30;99.90
19348;DHT22;9810;52.480;9.806;2022-12-16T00:23:11;-8.40;99.90
19348;DHT22;9810;52.480;9.806;2022-12-16T00:25:40;-8.30;99.90
19348;DHT22;9810;52.480;9.806;2022-12-16T00:28:07;-8.20;99.90
19348;DHT22;9810;52.480;9.806;2022-12-16T00:30:34;-8.20;99.90
19348;DHT22;9810;52.480;9.806;2022-12-16T00:33:02;-8.20;99.90
19348;DHT22;9810;52.480;9.806;2022-12-16T00:35:30;-8.20;99.90
19348;DHT22;9810;52.480;9.806;2022-12-16T00:37:57;-8.30;99.90
19348;DHT22;9810;52.480;9.806;2022-12-16T00:40:25;-8.30;99.90
19348;DHT22;9810;52.480;9.806;2022-12-16T00:42:52;-8.30;99.90
19348;DHT22;9810;52.480;9.806;2022-12-16T00:45:19;-8.40;99.90
19348;DHT22;9810;52.480;9.806;2022-12-16T00:47:48;-8.20;99.90
19348;DHT22;9810;52.480;9.806;2022-12-16T00:50:16;-8.10;99.90
19348;DHT22;9810;52.480;9.806;2022-12-16T00:52:45;-8.30;99.90
19348;DHT22;9810;52.480;9.806;2022-12-16T00:55:13;-8.50;99.90
19348;DHT22;9810;52.480;9.806;2022-12-16T00:57:40;-8.40;99.90
19348;DHT22;9810;52.480;9.806;2022-12-16T01:00:08;-7.90;99.90
19348;DHT22;9810;52.480;9.806;2022-12-16T01:02:38;-7.70;99.90
19348;DHT22;9810;52.480;9.806;2022-12-16T01:05:06;-7.60;99.90
19348;DHT22;9810;52.480;9.806;2022-12-16T01:07:34;-8.00;99.90
19348;DHT22;9810;52.480;9.806;2022-12-16T01:10:04;-8.40;99.90
19348;DHT22;9810;52.480;9.806;2022-12-16T01:12:31;-8.60;99.90
19348;DHT22;9810;52.480;9.806;2022-12-16T01:14:58;-8.60;99.90
19348;DHT22;9810;52.480;9.806;2022-12-16T01:17:26;-8.20;99.90
19348;DHT22;9810;52.480;9.806;2022-12-16T01:19:53;-8.20;99.90
19348;DHT22;9810;52.480;9.806;2022-12-16T01:22:21;-8.10;99.90
19348;DHT22;9810;52.480;9.806;2022-12-16T01:24:48;-8.00;99.90
19348;DHT22;9810;52.480;9.806;2022-12-16T01:27:17;-8.30;99.90
19348;DHT22;9810;52.480;9.806;2022-12-16T01:29:44;-8.70;99.90
19348;DHT22;9810;52.480;9.806;2022-12-16T01:32:12;-8.70;99.90
19348;DHT22;9810;52.480;9.806;2022-12-16T01:34:40;-8.80;99.90
19348;DHT22;9810;52.480;9.806;2022-12-16T01:37:09;-8.60;99.90
19348;DHT22;9810;52.480;9.806;2022-12-16T01:39:37;-8.30;99.90
19348;DHT22;9810;52.480;9.806;2022-12-16T01:42:07;-8.20;99.90
19348;DHT22;9810;52.480;9.806;2022-12-16T01:44:40;-8.30;99.90
19348;DHT22;9810;52.480;9.806;2022-12-16T01:47:13;-8.60;99.90
19348;DHT22;9810;52.480;9.806;2022-12-16T01:49:44;-8.50;99.90
19348;DHT22;9810;52.480;9.806;2022-12-16T01:52:17;-8.40;99.90
19348;DHT22;9810;52.480;9.806;2022-12-16T01:54:48;-8.30;99.90
19348;DHT22;9810;52.480;9.806;2022-12-16T01:57:20;-8.60;99.90
19348;DHT22;9810;52.480;9.806;2022-12-16T01:59:51;-8.80;99.90
19348;DHT22;9810;52.480;9.806;2022-12-16T02:02:20;-8.80;99.90
19348;DHT22;9810;52.480;9.806;2022-12-16T02:04:47;-9.00;99.90
19348;DHT22;9810;52.480;9.806;2022-12-16T02:07:28;-9.00;99.90
19348;DHT22;9810;52.480;9.806;2022-12-16T02:09:55;-9.10;99.90
19348;DHT22;9810;52.480;9.806;2022-12-16T02:12:28;-9.10;99.90
19348;DHT22;9810;52.480;9.806;2022-12-16T02:15:03;-9.10;99.90
19348;DHT22;9810;52.480;9.806;2022-12-16T02:17:38;-9.00;99.90
19348;DHT22;9810;52.480;9.806;2022-12-16T02:20:34;-8.90;99.90
19348;DHT22;9810;52.480;9.806;2022-12-16T02:23:21;-8.70;99.90
19348;DHT22;9810;52.480;9.806;2022-12-16T02:26:10;-8.90;99.90
19348;DHT22;9810;52.480;9.806;2022-12-16T02:29:14;-9.00;99.90
19348;DHT22;9810;52.480;9.806;2022-12-16T02:31:50;-9.00;99.90
19348;DHT22;9810;52.480;9.806;2022-12-16T02:34:26;-8.90;99.90
19348;DHT22;9810;52.480;9.806;2022-12-16T02:37:04;-9.00;99.90
19348;DHT22;9810;52.480;9.806;2022-12-16T02:39:36;-9.00;99.90
19348;DHT22;9810;52.480;9.806;2022-12-16T02:42:10;-8.90;99.90
19348;DHT22;9810;52.480;9.806;2022-12-16T02:44:43;-8.70;99.90
19348;DHT22;9810;52.480;9.806;2022-12-16T02:47:14;-8.70;99.90
19348;DHT22;9810;52.480;9.806;2022-12-16T02:49:45;-8.60;99.90
19348;DHT22;9810;52.480;9.806;2022-12-16T02:52:13;-8.70;99.90
19348;DHT22;9810;52.480;9.806;2022-12-16T02:54:41;-8.80;99.90
19348;DHT22;9810;52.480;9.806;2022-12-16T03:00:08;-8.90;99.90
19348;DHT22;9810;52.480;9.806;2022-12-16T03:02:44;-8.90;99.90
19348;DHT22;9810;52.480;9.806;2022-12-16T03:05:17;-9.10;99.90
19348;DHT22;9810;52.480;9.806;2022-12-16T03:07:48;-9.00;99.90
19348;DHT22;9810;52.480;9.806;2022-12-16T03:10:19;-8.70;99.90
19348;DHT22;9810;52.480;9.806;2022-12-16T03:12:47;-8.60;99.90
19348;DHT22;9810;52.480;9.806;2022-12-16T03:15:18;-8.40;99.90
19348;DHT22;9810;52.480;9.806;2022-12-16T03:17:50;-8.30;99.90
19348;DHT22;9810;52.480;9.806;2022-12-16T03:20:21;-8.60;99.90
19348;DHT22;9810;52.480;9.806;2022-12-16T03:22:51;-8.90;99.90
19348;DHT22;9810;52.480;9.806;2022-12-16T03:25:20;-9.20;99.90
19348;DHT22;9810;52.480;9.806;2022-12-16T03:27:54;-9.30;99.90
19348;DHT22;9810;52.480;9.806;2022-12-16T03:30:26;-9.40;99.90
19348;DHT22;9810;52.480;9.806;2022-12-16T03:32:59;-9.40;99.90
19348;DHT22;9810;52.480;9.806;2022-12-16T03:35:30;-9.40;99.90
19348;DHT22;9810;52.480;9.806;2022-12-16T03:38:02;-9.40;99.90
19348;DHT22;9810;52.480;9.806;2022-12-16T03:40:31;-9.50;99.90
19348;DHT22;9810;52.480;9.806;2022-12-16T03:43:00;-9.50;99.90
19348;DHT22;9810;52.480;9.806;2022-12-16T03:45:31;-9.40;99.90
19348;DHT22;9810;52.480;9.806;2022-12-16T03:48:00;-9.40;99.90
19348;DHT22;9810;52.480;9.806;2022-12-16T03:50:29;-9.40;99.90
19348;DHT22;9810;52.480;9.806;2022-12-16T03:52:57;-9.40;99.90
19348;DHT22;9810;52.480;9.806;2022-12-16T03:55:24;-9.30;99.90
19348;DHT22;9810;52.480;9.806;2022-12-16T03:57:51;-9.30;99.90
19348;DHT22;9810;52.480;9.806;2022-12-16T04:00:19;-9.40;99.90
19348;DHT22;9810;52.480;9.806;2022-12-16T04:02:46;-9.50;99.90
19348;DHT22;9810;52.480;9.806;2022-12-16T04:05:15;-9.50;99.90
19348;DHT22;9810;52.480;9.806;2022-12-16T04:07:43;-9.60;99.90
19348;DHT22;9810;52.480;9.806;2022-12-16T04:10:11;-9.40;99.90
19348;DHT22;9810;52.480;9.806;2022-12-16T04:12:38;-9.40;99.90
19348;DHT22;9810;52.480;9.806;2022-12-16T04:15:22;-9.00;99.90
19348;DHT22;9810;52.480;9.806;2022-12-16T04:18:13;-8.70;99.90
19348;DHT22;9810;52.480;9.806;2022-12-16T04:20:59;-8.90;99.90
19348;DHT22;9810;52.480;9.806;2022-12-16T04:23:47;-9.30;99.90
19348;DHT22;9810;52.480;9.806;2022-12-16T04:26:32;-9.60;99.90
19348;DHT22;9810;52.480;9.806;2022-12-16T04:29:20;-9.60;99.90
19348;DHT22;9810;52.480;9.806;2022-12-16T04:31:48;-9.60;99.90
19348;DHT22;9810;52.480;9.806;2022-12-16T04:34:15;-9.70;99.90
19348;DHT22;9810;52.480;9.806;2022-12-16T04:36:57;-9.70;99.90
19348;DHT22;9810;52.480;9.806;2022-12-16T04:39:42;-9.80;99.90
19348;DHT22;9810;52.480;9.806;2022-12-16T04:42:26;-9.90;99.90
19348;DHT22;9810;52.480;9.806;2022-12-16T04:45:11;-9.90;99.90
19348;DHT22;9810;52.480;9.806;2022-12-16T04:47:55;-9.90;99.90
19348;DHT22;9810;52.480;9.806;2022-12-16T04:50:40;-10.00;99.90
19348;DHT22;9810;52.480;9.806;2022-12-16T04:53:40;-10.00;99.90
19348;DHT22;9810;52.480;9.806;2022-12-16T04:56:39;-10.00;99.90
19348;DHT22;9810;52.480;9.806;2022-12-16T04:59:23;-10.00;99.90
19348;DHT22;9810;52.480;9.806;2022-12-16T05:02:08;-9.90;99.90
19348;DHT22;9810;52.480;9.806;2022-12-16T05:04:52;-10.00;99.90
19348;DHT22;9810;52.480;9.806;2022-12-16T05:07:37;-10.00;99.90
19348;DHT22;9810;52.480;9.806;2022-12-16T05:10:23;-10.00;99.90
19348;DHT22;9810;52.480;9.806;2022-12-16T05:13:07;-10.00;99.90
19348;DHT22;9810;52.480;9.806;2022-12-16T05:15:52;-10.00;99.90
19348;DHT22;9810;52.480;9.806;2022-12-16T05:18:36;-10.00;99.90
19348;DHT22;9810;52.480;9.806;2022-12-16T05:21:21;-10.00;99.90
19348;DHT22;9810;52.480;9.806;2022-12-16T05:24:05;-9.90;99.90
19348;DHT22;9810;52.480;9.806;2022-12-16T05:26:51;-9.80;99.90
19348;DHT22;9810;52.480;9.806;2022-12-16T05:29:38;-9.80;99.90
19348;DHT22;9810;52.480;9.806;2022-12-16T05:32:23;-9.80;99.90
19348;DHT22;9810;52.480;9.806;2022-12-16T05:35:07;-9.90;99.90
19348;DHT22;9810;52.480;9.806;2022-12-16T05:37:57;-9.90;99.90
19348;DHT22;9810;52.480;9.806;2022-12-16T05:40:41;-9.90;99.90
19348;DHT22;9810;52.480;9.806;2022-12-16T05:43:23;-9.90;99.90
19348;DHT22;9810;52.480;9.806;2022-12-16T05:46:07;-9.90;99.90
19348;DHT22;9810;52.480;9.806;2022-12-16T05:48:52;-9.80;99.90
19348;DHT22;9810;52.480;9.806;2022-12-16T05:51:36;-9.40;99.90
19348;DHT22;9810;52.480;9.806;2022-12-16T05:54:21;-9.70;99.90
19348;DHT22;9810;52.480;9.806;2022-12-16T05:57:05;-9.80;99.90
19348;DHT22;9810;52.480;9.806;2022-12-16T05:59:51;-9.90;99.90
19348;DHT22;9810;52.480;9.806;2022-12-16T06:02:36;-9.90;99.90
19348;DHT22;9810;52.480;9.806;2022-12-16T06:05:20;-9.90;99.90
19348;DHT22;9810;52.480;9.806;2022-12-16T06:08:04;-9.80;99.90
19348;DHT22;9810;52.480;9.806;2022-12-16T06:10:49;-9.70;99.90
19348;DHT22;9810;52.480;9.806;2022-12-16T06:13:33;-9.80;99.90
19348;DHT22;9810;52.480;9.806;2022-12-16T06:16:19;-9.80;99.90
19348;DHT22;9810;52.480;9.806;2022-12-16T06:19:03;-9.90;99.90
19348;DHT22;9810;52.480;9.806;2022-12-16T06:21:48;-9.90;99.90
19348;DHT22;9810;52.480;9.806;2022-12-16T06:24:32;-10.00;99.90
19348;DHT22;9810;52.480;9.806;2022-12-16T06:27:16;-9.90;99.90
19348;DHT22;9810;52.480;9.806;2022-12-16T06:30:00;-9.90;99.90
19348;DHT22;9810;52.480;9.806;2022-12-16T06:32:46;-10.10;99.90
19348;DHT22;9810;52.480;9.806;2022-12-16T06:35:31;-10.20;99.90
19348;DHT22;9810;52.480;9.806;2022-12-16T06:38:15;-10.30;99.90
19348;DHT22;9810;52.480;9.806;2022-12-16T06:40:59;-10.30;99.90
19348;DHT22;9810;52.480;9.806;2022-12-16T06:43:43;-10.20;99.90
19348;DHT22;9810;52.480;9.806;2022-12-16T06:46:27;-9.90;99.90
19348;DHT22;9810;52.480;9.806;2022-12-16T06:49:13;-9.50;99.90
19348;DHT22;9810;52.480;9.806;2022-12-16T06:51:57;-9.40;99.90
19348;DHT22;9810;52.480;9.806;2022-12-16T06:54:42;-9.50;99.90
19348;DHT22;9810;52.480;9.806;2022-12-16T06:57:26;-9.50;99.90
19348;DHT22;9810;52.480;9.806;2022-12-16T07:00:11;-9.50;99.90
19348;DHT22;9810;52.480;9.806;2022-12-16T07:02:55;-9.50;99.90
19348;DHT22;9810;52.480;9.806;2022-12-16T07:05:40;-9.70;99.90
19348;DHT22;9810;52.480;9.806;2022-12-16T07:08:25;-9.90;99.90
19348;DHT22;9810;52.480;9.806;2022-12-16T07:11:23;-9.80;99.90
19348;DHT22;9810;52.480;9.806;2022-12-16T07:14:08;-9.70;99.90
19348;DHT22;9810;52.480;9.806;2022-12-16T07:16:52;-9.50;99.90
19348;DHT22;9810;52.480;9.806;2022-12-16T07:19:37;-9.80;99.90
19348;DHT22;9810;52.480;9.806;2022-12-16T07:22:23;-9.70;99.90
19348;DHT22;9810;52.480;9.806;2022-12-16T07:25:08;-9.30;99.90
19348;DHT22;9810;52.480;9.806;2022-12-16T07:27:52;-9.20;99.90
19348;DHT22;9810;52.480;9.806;2022-12-16T07:30:37;-9.20;99.90
19348;DHT22;9810;52.480;9.806;2022-12-16T07:33:21;-9.20;99.90
19348;DHT22;9810;52.480;9.806;2022-12-16T07:36:06;-9.30;99.90
19348;DHT22;9810;52.480;9.806;2022-12-16T07:38:52;-8.90;99.90
19348;DHT22;9810;52.480;9.806;2022-12-16T07:41:36;-8.50;99.90
19348;DHT22;9810;52.480;9.806;2022-12-16T07:44:20;-8.60;99.90
19348;DHT22;9810;52.480;9.806;2022-12-16T07:47:04;-8.60;99.90
19348;DHT22;9810;52.480;9.806;2022-12-16T07:49:49;-8.50;99.90
19348;DHT22;9810;52.480;9.806;2022-12-16T07:52:33;-8.40;99.90
19348;DHT22;9810;52.480;9.806;2022-12-16T07:55:18;-8.30;99.90
19348;DHT22;9810;52.480;9.806;2022-12-16T07:58:11;-7.70;99.90
19348;DHT22;9810;52.480;9.806;2022-12-16T08:00:55;-7.30;99.90
19348;DHT22;9810;52.480;9.806;2022-12-16T08:03:40;-7.10;99.90
19348;DHT22;9810;52.480;9.806;2022-12-16T08:06:24;-7.10;99.90
19348;DHT22;9810;52.480;9.806;2022-12-16T08:09:09;-6.90;99.90
19348;DHT22;9810;52.480;9.806;2022-12-16T08:11:55;-6.80;99.90
19348;DHT22;9810;52.480;9.806;2022-12-16T08:14:40;-6.80;99.90
19348;DHT22;9810;52.480;9.806;2022-12-16T08:17:24;-6.80;99.90
19348;DHT22;9810;52.480;9.806;2022-12-16T08:20:09;-6.60;99.90
19348;DHT22;9810;52.480;9.806;2022-12-16T08:22:53;-6.70;99.90
19348;DHT22;9810;52.480;9.806;2022-12-16T08:25:38;-6.50;99.90
19348;DHT22;9810;52.480;9.806;2022-12-16T08:28:24;-6.50;99.90
19348;DHT22;9810;52.480;9.806;2022-12-16T08:31:08;-6.20;99.90
19348;DHT22;9810;52.480;9.806;2022-12-16T08:33:52;-6.20;99.90
19348;DHT22;9810;52.480;9.806;2022-12-16T08:36:37;-6.20;99.90
19348;DHT22;9810;52.480;9.806;2022-12-16T08:39:21;-6.30;99.90
19348;DHT22;9810;52.480;9.806;2022-12-16T08:42:05;-6.30;99.90
19348;DHT22;9810;52.480;9.806;2022-12-16T08:44:51;-5.90;99.90
19348;DHT22;9810;52.480;9.806;2022-12-16T08:47:35;-5.70;99.90
19348;DHT22;9810;52.480;9.806;2022-12-16T08:50:20;-5.60;99.90
19348;DHT22;9810;52.480;9.806;2022-12-16T08:53:04;-5.40;99.90
19348;DHT22;9810;52.480;9.806;2022-12-16T08:55:48;-5.40;99.90
19348;DHT22;9810;52.480;9.806;2022-12-16T08:58:32;-5.40;99.90
19348;DHT22;9810;52.480;9.806;2022-12-16T09:01:18;-5.20;99.90
19348;DHT22;9810;52.480;9.806;2022-12-16T09:04:03;-4.80;99.90
19348;DHT22;9810;52.480;9.806;2022-12-16T09:06:47;-4.70;99.90
19348;DHT22;9810;52.480;9.806;2022-12-16T09:09:31;-4.40;99.90
19348;DHT22;9810;52.480;9.806;2022-12-16T09:12:15;-4.30;99.90
19348;DHT22;9810;52.480;9.806;2022-12-16T09:15:00;-4.00;99.90
19348;DHT22;9810;52.480;9.806;2022-12-16T09:17:52;-3.90;99.90
19348;DHT22;9810;52.480;9.806;2022-12-16T09:20:36;-3.60;99.90
19348;DHT22;9810;52.480;9.806;2022-12-16T09:23:20;-3.60;99.90
19348;DHT22;9810;52.480;9.806;2022-12-16T09:26:05;-3.50;99.90
19348;DHT22;9810;52.480;9.806;2022-12-16T09:28:49;-3.50;99.90
19348;DHT22;9810;52.480;9.806;2022-12-16T09:31:33;-3.50;99.90
19348;DHT22;9810;52.480;9.806;2022-12-16T09:34:19;-3.60;99.90
19348;DHT22;9810;52.480;9.806;2022-12-16T09:37:04;-3.70;99.90
19348;DHT22;9810;52.480;9.806;2022-12-16T09:39:48;-3.50;99.90
19348;DHT22;9810;52.480;9.806;2022-12-16T09:42:43;-3.20;99.90
19348;DHT22;9810;52.480;9.806;2022-12-16T09:45:37;-3.30;99.90
19348;DHT22;9810;52.480;9.806;2022-12-16T09:48:26;-3.00;99.90
19348;DHT22;9810;52.480;9.806;2022-12-16T09:51:15;-2.80;99.90
19348;DHT22;9810;52.480;9.806;2022-12-16T09:54:01;-2.60;99.90
19348;DHT22;9810;52.480;9.806;2022-12-16T09:56:46;-2.70;99.90
19348;DHT22;9810;52.480;9.806;2022-12-16T09:59:34;-2.60;99.90
19348;DHT22;9810;52.480;9.806;2022-12-16T10:02:29;-2.40;99.90
19348;DHT22;9810;52.480;9.806;2022-12-16T10:05:15;-2.60;99.90
19348;DHT22;9810;52.480;9.806;2022-12-16T10:08:10;-2.70;99.90
19348;DHT22;9810;52.480;9.806;2022-12-16T10:11:03;-2.80;99.90
19348;DHT22;9810;52.480;9.806;2022-12-16T10:13:54;-3.00;99.90
19348;DHT22;9810;52.480;9.806;2022-12-16T10:16:46;-3.00;99.90
19348;DHT22;9810;52.480;9.806;2022-12-16T10:19:41;-3.00;99.90
19348;DHT22;9810;52.480;9.806;2022-12-16T10:22:33;-2.80;99.90
19348;DHT22;9810;52.480;9.806;2022-12-16T10:25:24;-2.80;99.90
19348;DHT22;9810;52.480;9.806;2022-12-16T10:28:15;-2.90;99.90
19348;DHT22;9810;52.480;9.806;2022-12-16T10:31:00;-2.80;99.90
19348;DHT22;9810;52.480;9.806;2022-12-16T10:33:48;-2.50;99.90
19348;DHT22;9810;52.480;9.806;2022-12-16T10:36:34;-2.30;99.90
19348;DHT22;9810;52.480;9.806;2022-12-16T10:39:26;-2.60;99.90
19348;DHT22;9810;52.480;9.806;2022-12-16T10:42:20;-2.80;99.90
19348;DHT22;9810;52.480;9.806;2022-12-16T10:45:16;-2.80;99.90
19348;DHT22;9810;52.480;9.806;2022-12-16T10:48:02;-2.40;99.90
19348;DHT22;9810;52.480;9.806;2022-12-16T10:50:46;-2.40;99.90
19348;DHT22;9810;52.480;9.806;2022-12-16T10:53:31;-2.30;99.90
19348;DHT22;9810;52.480;9.806;2022-12-16T10:56:31;-2.10;99.90
19348;DHT22;9810;52.480;9.806;2022-12-16T10:59:21;-1.90;99.90
19348;DHT22;9810;52.480;9.806;2022-12-16T11:02:18;-1.30;99.90
19348;DHT22;9810;52.480;9.806;2022-12-16T11:05:21;-1.60;99.90
19348;DHT22;9810;52.480;9.806;2022-12-16T11:08:23;-1.50;99.90
19348;DHT22;9810;52.480;9.806;2022-12-16T11:11:13;-1.40;99.90
19348;DHT22;9810;52.480;9.806;2022-12-16T11:14:14;-1.40;99.90
19348;DHT22;9810;52.480;9.806;2022-12-16T11:17:16;-1.30;99.90
19348;DHT22;9810;52.480;9.806;2022-12-16T11:20:14;-1.10;99.90
19348;DHT22;9810;52.480;9.806;2022-12-16T11:23:19;-1.20;99.90
19348;DHT22;9810;52.480;9.806;2022-12-16T11:26:12;-1.30;99.90
19348;DHT22;9810;52.480;9.806;2022-12-16T11:29:10;-1.30;99.90
19348;DHT22;9810;52.480;9.806;2022-12-16T11:32:01;-1.50;99.90
19348;DHT22;9810;52.480;9.806;2022-12-16T11:34:52;-1.50;99.90
19348;DHT22;9810;52.480;9.806;2022-12-16T11:37:38;-1.40;99.90
19348;DHT22;9810;52.480;9.806;2022-12-16T11:40:24;-0.90;99.90
19348;DHT22;9810;52.480;9.806;2022-12-16T11:43:11;-0.80;99.90
19348;DHT22;9810;52.480;9.806;2022-12-16T11:46:00;-1.00;99.90
19348;DHT22;9810;52.480;9.806;2022-12-16T11:48:47;-1.10;99.90
19348;DHT22;9810;52.480;9.806;2022-12-16T11:51:35;-1.00;99.90
19348;DHT22;9810;52.480;9.806;2022-12-16T11:54:23;-1.30;99.90
19348;DHT22;9810;52.480;9.806;2022-12-16T11:57:21;-1.30;99.90
19348;DHT22;9810;52.480;9.806;2022-12-16T12:00:12;-1.40;99.90
19348;DHT22;9810;52.480;9.806;2022-12-16T12:02:57;-1.40;99.90
19348;DHT22;9810;52.480;9.806;2022-12-16T12:05:53;-1.50;99.90
19348;DHT22;9810;52.480;9.806;2022-12-16T12:08:47;-1.50;99.90
19348;DHT22;9810;52.480;9.806;2022-12-16T12:11:42;-1.40;99.90
19348;DHT22;9810;52.480;9.806;2022-12-16T12:14:34;-1.20;99.90
19348;DHT22;9810;52.480;9.806;2022-12-16T12:17:26;-1.20;99.90
19348;DHT22;9810;52.480;9.806;2022-12-16T12:20:29;-1.10;99.90
19348;DHT22;9810;52.480;9.806;2022-12-16T12:23:19;-1.20;99.90
19348;DHT22;9810;52.480;9.806;2022-12-16T12:26:12;-1.20;99.90
19348;DHT22;9810;52.480;9.806;2022-12-16T12:29:03;-1.10;99.90
19348;DHT22;9810;52.480;9.806;2022-12-16T12:31:52;-1.00;99.90
19348;DHT22;9810;52.480;9.806;2022-12-16T12:34:44;-1.00;99.90
19348;DHT22;9810;52.480;9.806;2022-12-16T12:37:35;-1.00;99.90
19348;DHT22;9810;52.480;9.806;2022-12-16T12:40:37;-0.90;99.90
19348;DHT22;9810;52.480;9.806;2022-12-16T12:43:33;-1.10;99.90
19348;DHT22;9810;52.480;9.806;2022-12-16T12:46:24;-1.20;99.90
19348;DHT22;9810;52.480;9.806;2022-12-16T12:49:18;-1.20;99.90
19348;DHT22;9810;52.480;9.806;2022-12-16T12:52:13;-1.10;99.90
19348;DHT22;9810;52.480;9.806;2022-12-16T12:55:03;-1.00;99.90
19348;DHT22;9810;52.480;9.806;2022-12-16T12:57:52;-1.00;99.90
19348;DHT22;9810;52.480;9.806;2022-12-16T13:00:42;-1.10;99.90
19348;DHT22;9810;52.480;9.806;2022-12-16T13:03:32;-0.90;99.90
19348;DHT22;9810;52.480;9.806;2022-12-16T13:06:18;-0.60;99.90
19348;DHT22;9810;52.480;9.806;2022-12-16T13:09:22;-0.50;99.90
19348;DHT22;9810;52.480;9.806;2022-12-16T13:12:23;-0.80;99.90
19348;DHT22;9810;52.480;9.806;2022-12-16T13:15:09;-0.60;99.90
19348;DHT22;9810;52.480;9.806;2022-12-16T13:18:40;-0.60;99.90
19348;DHT22;9810;52.480;9.806;2022-12-16T13:21:45;-0.50;99.90
19348;DHT22;9810;52.480;9.806;2022-12-16T13:24:50;-0.80;99.90
19348;DHT22;9810;52.480;9.806;2022-12-16T13:27:53;-0.50;99.90
19348;DHT22;9810;52.480;9.806;2022-12-16T13:30:38;-0.40;99.90
19348;DHT22;9810;52.480;9.806;2022-12-16T13:33:29;-0.40;99.90
19348;DHT22;9810;52.480;9.806;2022-12-16T13:36:17;-0.50;99.90
19348;DHT22;9810;52.480;9.806;2022-12-16T13:39:19;-0.80;99.90
19348;DHT22;9810;52.480;9.806;2022-12-16T13:42:04;-0.90;99.90
19348;DHT22;9810;52.480;9.806;2022-12-16T13:44:58;-0.80;99.90
19348;DHT22;9810;52.480;9.806;2022-12-16T13:48:00;-0.90;99.90
19348;DHT22;9810;52.480;9.806;2022-12-16T13:50:47;-1.00;99.90
19348;DHT22;9810;52.480;9.806;2022-12-16T13:53:37;-0.70;99.90
19348;DHT22;9810;52.480;9.806;2022-12-16T13:56:26;-0.60;99.90
19348;DHT22;9810;52.480;9.806;2022-12-16T13:59:15;-0.70;99.90
19348;DHT22;9810;52.480;9.806;2022-12-16T14:02:10;-0.80;99.90
19348;DHT22;9810;52.480;9.806;2022-12-16T14:04:57;-0.70;99.90
19348;DHT22;9810;52.480;9.806;2022-12-16T14:07:43;-0.50;99.90
19348;DHT22;9810;52.480;9.806;2022-12-16T14:10:32;-0.80;99.90
19348;DHT22;9810;52.480;9.806;2022-12-16T14:13:21;-1.00;99.90
19348;DHT22;9810;52.480;9.806;2022-12-16T14:16:14;-1.10;99.90
19348;DHT22;9810;52.480;9.806;2022-12-16T14:19:09;-1.10;99.90
19348;DHT22;9810;52.480;9.806;2022-12-16T14:22:02;-1.00;99.90
19348;DHT22;9810;52.480;9.806;2022-12-16T14:24:50;-1.00;99.90
19348;DHT22;9810;52.480;9.806;2022-12-16T14:27:47;-0.90;99.90
19348;DHT22;9810;52.480;9.806;2022-12-16T14:30:32;-0.70;99.90
19348;DHT22;9810;52.480;9.806;2022-12-16T14:33:21;-0.60;99.90
19348;DHT22;9810;52.480;9.806;2022-12-16T14:36:22;-0.30;99.90
19348;DHT22;9810;52.480;9.806;2022-12-16T14:39:10;-0.30;99.90
19348;DHT22;9810;52.480;9.806;2022-12-16T14:41:55;-0.20;99.90
19348;DHT22;9810;52.480;9.806;2022-12-16T14:44:43;-0.30;99.90
19348;DHT22;9810;52.480;9.806;2022-12-16T14:47:29;-0.30;99.90
19348;DHT22;9810;52.480;9.806;2022-12-16T14:50:19;-0.20;99.90
19348;DHT22;9810;52.480;9.806;2022-12-16T14:53:13;-0.30;99.90
19348;DHT22;9810;52.480;9.806;2022-12-16T14:56:09;-0.30;99.90
19348;DHT22;9810;52.480;9.806;2022-12-16T14:59:12;-0.40;99.90
19348;DHT22;9810;52.480;9.806;2022-12-16T15:02:09;-0.50;99.90
19348;DHT22;9810;52.480;9.806;2022-12-16T15:04:55;-0.70;99.90
19348;DHT22;9810;52.480;9.806;2022-12-16T15:07:40;-0.60;99.90
19348;DHT22;9810;52.480;9.806;2022-12-16T15:10:26;-0.80;99.90
19348;DHT22;9810;52.480;9.806;2022-12-16T15:13:16;-1.10;99.90
19348;DHT22;9810;52.480;9.806;2022-12-16T15:16:01;-1.10;99.90
19348;DHT22;9810;52.480;9.806;2022-12-16T15:18:56;-1.00;99.90
19348;DHT22;9810;52.480;9.806;2022-12-16T15:21:41;-1.00;99.90
19348;DHT22;9810;52.480;9.806;2022-12-16T15:24:34;-1.20;99.90
19348;DHT22;9810;52.480;9.806;2022-12-16T15:27:24;-1.40;99.90
19348;DHT22;9810;52.480;9.806;2022-12-16T15:30:32;-1.30;99.90
19348;DHT22;9810;52.480;9.806;2022-12-16T15:33:19;-1.10;99.90
19348;DHT22;9810;52.480;9.806;2022-12-16T15:36:18;-1.00;99.90
19348;DHT22;9810;52.480;9.806;2022-12-16T15:39:09;-1.20;99.90
19348;DHT22;9810;52.480;9.806;2022-12-16T15:41:54;-1.40;99.90
19348;DHT22;9810;52.480;9.806;2022-12-16T15:44:47;-1.20;99.90
19348;DHT22;9810;52.480;9.806;2022-12-16T15:47:34;-1.00;99.90
19348;DHT22;9810;52.480;9.806;2022-12-16T15:50:21;-0.90;99.90
19348;DHT22;9810;52.480;9.806;2022-12-16T15:53:24;-0.90;99.90
19348;DHT22;9810;52.480;9.806;2022-12-16T15:56:16;-1.20;99.90
19348;DHT22;9810;52.480;9.806;2022-12-16T15:59:22;-1.20;99.90
19348;DHT22;9810;52.480;9.806;2022-12-16T16:02:14;-1.10;99.90
19348;DHT22;9810;52.480;9.806;2022-12-16T16:04:58;-1.20;99.90
19348;DHT22;9810;52.480;9.806;2022-12-16T16:07:43;-1.00;99.90
19348;DHT22;9810;52.480;9.806;2022-12-16T16:10:29;-1.30;99.90
19348;DHT22;9810;52.480;9.806;2022-12-16T16:13:13;-1.40;99.90
19348;DHT22;9810;52.480;9.806;2022-12-16T16:15:58;-1.20;99.90
19348;DHT22;9810;52.480;9.806;2022-12-16T16:18:43;-1.40;99.90
19348;DHT22;9810;52.480;9.806;2022-12-16T16:21:28;-1.60;99.90
19348;DHT22;9810;52.480;9.806;2022-12-16T16:24:12;-1.70;99.90
19348;DHT22;9810;52.480;9.806;2022-12-16T16:27:00;-1.60;99.90
19348;DHT22;9810;52.480;9.806;2022-12-16T16:29:45;-1.50;99.90
19348;DHT22;9810;52.480;9.806;2022-12-16T16:32:29;-1.70;99.90
19348;DHT22;9810;52.480;9.806;2022-12-16T16:35:10;-1.40;99.90
19348;DHT22;9810;52.480;9.806;2022-12-16T16:37:55;-1.30;99.90
19348;DHT22;9810;52.480;9.806;2022-12-16T16:40:40;-1.40;99.90
19348;DHT22;9810;52.480;9.806;2022-12-16T16:43:27;-1.50;99.90
19348;DHT22;9810;52.480;9.806;2022-12-16T16:46:27;-1.50;99.90
19348;DHT22;9810;52.480;9.806;2022-12-16T16:49:09;-1.60;99.90
19348;DHT22;9810;52.480;9.806;2022-12-16T16:51:54;-1.50;99.90
19348;DHT22;9810;52.480;9.806;2022-12-16T16:54:39;-1.50;99.90
19348;DHT22;9810;52.480;9.806;2022-12-16T16:57:24;-1.70;99.90
19348;DHT22;9810;52.480;9.806;2022-12-16T17:00:14;-1.60;99.90
19348;DHT22;9810;52.480;9.806;2022-12-16T17:02:59;-1.70;99.90
19348;DHT22;9810;52.480;9.806;2022-12-16T17:05:43;-1.60;99.90
19348;DHT22;9810;52.480;9.806;2022-12-16T17:08:27;-1.60;99.90
19348;DHT22;9810;52.480;9.806;2022-12-16T17:11:17;-1.80;99.90
19348;DHT22;9810;52.480;9.806;2022-12-16T17:14:02;-1.50;99.90
19348;DHT22;9810;52.480;9.806;2022-12-16T17:16:48;-1.70;99.90
19348;DHT22;9810;52.480;9.806;2022-12-16T17:19:32;-1.50;99.90
19348;DHT22;9810;52.480;9.806;2022-12-16T17:22:17;-1.70;99.90
19348;DHT22;9810;52.480;9.806;2022-12-16T17:25:01;-2.00;99.90
19348;DHT22;9810;52.480;9.806;2022-12-16T17:27:57;-2.10;99.90
19348;DHT22;9810;52.480;9.806;2022-12-16T17:30:41;-2.00;99.90
19348;DHT22;9810;52.480;9.806;2022-12-16T17:33:27;-2.20;99.90